sensor_id;sensor_type;location;lat;lon;timestamp;temperature;humidity
29731;DHT22;16639;51.488;0.152;2023-09-30T00:00:15;15.00;99.90
29731;DHT22;16639;51.488;0.152;2023-09-30T00:02:42;15.00;99.90
29731;DHT22;16639;51.488;0.152;2023-09-30T00:05:10;15.00;99.90
29731;DHT22;16639;51.488;0.152;2023-09-30T00:07:38;15.00;99.90
29731;DHT22;16639;51.488;0.152;2023-09-30T00:10:06;15.00;99.90
29731;DHT22;16639;51.488;0.152;2023-09-30T00:12:33;15.20;99.90
29731;DHT22;16639;51.488;0.152;2023-09-30T00:15:01;15.00;99.90
29731;DHT22;16639;51.488;0.152;2023-09-30T00:17:29;15.00;99.90
29731;DHT22;16639;51.488;0.152;2023-09-30T00:19:56;14.90;99.90
29731;DHT22;16639;51.488;0.152;2023-09-30T00:22:51;14.90;99.90
29731;DHT22;16639;51.488;0.152;2023-09-30T00:26:09;14.90;99.90
29731;DHT22;16639;51.488;0.152;2023-09-30T00:29:05;14.90;99.90
29731;DHT22;16639;51.488;0.152;2023-09-30T00:31:39;14.90;99.90
29731;DHT22;16639;51.488;0.152;2023-09-30T00:34:34;14.90;99.90
29731;DHT22;16639;51.488;0.152;2023-09-30T00:37:02;14.90;99.90
29731;DHT22;16639;51.488;0.152;2023-09-30T00:39:29;14.90;99.90
29731;DHT22;16639;51.488;0.152;2023-09-30T00:41:58;14.90;99.90
29731;DHT22;16639;51.488;0.152;2023-09-30T00:44:26;14.90;99.90
29731;DHT22;16639;51.488;0.152;2023-09-30T00:46:54;14.90;99.90
29731;DHT22;16639;51.488;0.152;2023-09-30T00:49:24;15.40;99.90
29731;DHT22;16639;51.488;0.152;2023-09-30T00:51:52;14.90;99.90
29731;DHT22;16639;51.488;0.152;2023-09-30T00:54:23;14.90;99.90
29731;DHT22;16639;51.488;0.152;2023-09-30T00:56:54;14.90;99.90
29731;DHT22;16639;51.488;0.152;2023-09-30T00:59:23;14.90;99.90
29731;DHT22;16639;51.488;0.152;2023-09-30T01:01:54;14.90;99.90
29731;DHT22;16639;51.488;0.152;2023-09-30T01:04:26;14.90;99.90
29731;DHT22;16639;51.488;0.152;2023-09-30T01:06:54;14.90;99.90
29731;DHT22;16639;51.488;0.152;2023-09-30T01:09:21;14.90;99.90
29731;DHT22;16639;51.488;0.152;2023-09-30T01:11:49;14.90;99.90
29731;DHT22;16639;51.488;0.152;2023-09-30T01:14:32;14.80;99.90
29731;DHT22;16639;51.488;0.152;2023-09-30T01:17:05;14.80;99.90
29731;DHT22;16639;51.488;0.152;2023-09-30T01:19:36;14.80;99.90
29731;DHT22;16639;51.488;0.152;2023-09-30T01:22:03;14.80;99.90
29731;DHT22;16639;51.488;0.152;2023-09-30T01:24:41;14.80;99.90
29731;DHT22;16639;51.488;0.152;2023-09-30T01:27:09;14.90;99.90
29731;DHT22;16639;51.488;0.152;2023-09-30T01:29:37;14.80;99.90
29731;DHT22;16639;51.488;0.152;2023-09-30T01:32:06;14.80;99.90
29731;DHT22;16639;51.488;0.152;2023-09-30T01:34:37;14.80;99.90
29731;DHT22;16639;51.488;0.152;2023-09-30T01:37:05;15.20;99.90
29731;DHT22;16639;51.488;0.152;2023-09-30T01:39:33;14.80;99.90
29731;DHT22;16639;51.488;0.152;2023-09-30T01:42:01;14.70;99.90
29731;DHT22;16639;51.488;0.152;2023-09-30T01:44:29;14.70;99.90
29731;DHT22;16639;51.488;0.152;2023-09-30T01:46:56;14.70;99.90
29731;DHT22;16639;51.488;0.152;2023-09-30T01:49:23;14.70;99.90
29731;DHT22;16639;51.488;0.152;2023-09-30T01:51:53;14.70;99.90
29731;DHT22;16639;51.488;0.152;2023-09-30T01:54:20;14.70;99.90
29731;DHT22;16639;51.488;0.152;2023-09-30T01:56:48;14.50;99.90
29731;DHT22;16639;51.488;0.152;2023-09-30T01:59:17;14.70;99.90
29731;DHT22;16639;51.488;0.152;2023-09-30T02:01:44;14.60;99.90
29731;DHT22;16639;51.488;0.152;2023-09-30T02:04:13;14.60;99.90
29731;DHT22;16639;51.488;0.152;2023-09-30T02:06:44;14.60;99.90
29731;DHT22;16639;51.488;0.152;2023-09-30T02:09:11;14.60;99.90
29731;DHT22;16639;51.488;0.152;2023-09-30T02:14:31;14.60;99.90
29731;DHT22;16639;51.488;0.152;2023-09-30T02:16:59;14.60;99.90
29731;DHT22;16639;51.488;0.152;2023-09-30T02:19:26;14.60;99.90
29731;DHT22;16639;51.488;0.152;2023-09-30T02:21:54;14.60;99.90
29731;DHT22;16639;51.488;0.152;2023-09-30T02:24:22;14.60;99.90
29731;DHT22;16639;51.488;0.152;2023-09-30T02:26:50;15.00;99.90
29731;DHT22;16639;51.488;0.152;2023-09-30T02:29:18;14.60;99.90
29731;DHT22;16639;51.488;0.152;2023-09-30T02:31:45;14.60;99.90
29731;DHT22;16639;51.488;0.152;2023-09-30T02:34:13;14.60;99.90
29731;DHT22;16639;51.488;0.152;2023-09-30T02:36:40;14.60;99.90
29731;DHT22;16639;51.488;0.152;2023-09-30T02:39:09;14.60;99.90
29731;DHT22;16639;51.488;0.152;2023-09-30T02:41:36;14.60;99.90
29731;DHT22;16639;51.488;0.152;2023-09-30T02:44:05;14.10;99.90
29731;DHT22;16639;51.488;0.152;2023-09-30T02:46:33;14.50;99.90
29731;DHT22;16639;51.488;0.152;2023-09-30T02:49:03;14.50;99.90
29731;DHT22;16639;51.488;0.152;2023-09-30T02:51:31;14.20;99.90
29731;DHT22;16639;51.488;0.152;2023-09-30T02:53:59;14.50;99.90
29731;DHT22;16639;51.488;0.152;2023-09-30T02:56:26;14.60;99.90
29731;DHT22;16639;51.488;0.152;2023-09-30T02:58:56;14.60;99.90
29731;DHT22;16639;51.488;0.152;2023-09-30T03:01:23;14.20;99.90
29731;DHT22;16639;51.488;0.152;2023-09-30T03:03:51;14.60;99.90
29731;DHT22;16639;51.488;0.152;2023-09-30T03:06:18;14.60;99.90
29731;DHT22;16639;51.488;0.152;2023-09-30T03:08:46;14.60;99.90
29731;DHT22;16639;51.488;0.152;2023-09-30T03:11:14;14.60;99.90
29731;DHT22;16639;51.488;0.152;2023-09-30T03:13:41;14.60;99.90
29731;DHT22;16639;51.488;0.152;2023-09-30T03:16:09;14.60;99.90
29731;DHT22;16639;51.488;0.152;2023-09-30T03:18:37;14.60;99.90
29731;DHT22;16639;51.488;0.152;2023-09-30T03:21:13;14.50;99.90
29731;DHT22;16639;51.488;0.152;2023-09-30T03:23:42;14.60;99.90
29731;DHT22;16639;51.488;0.152;2023-09-30T03:26:09;14.50;99.90
29731;DHT22;16639;51.488;0.152;2023-09-30T03:28:38;14.50;99.90
29731;DHT22;16639;51.488;0.152;2023-09-30T03:31:05;14.80;99.90
29731;DHT22;16639;51.488;0.152;2023-09-30T03:33:34;14.50;99.90
29731;DHT22;16639;51.488;0.152;2023-09-30T03:36:02;14.50;99.90
29731;DHT22;16639;51.488;0.152;2023-09-30T03:38:30;14.40;99.90
29731;DHT22;16639;51.488;0.152;2023-09-30T03:40:59;14.40;99.90
29731;DHT22;16639;51.488;0.152;2023-09-30T03:43:33;14.40;99.90
29731;DHT22;16639;51.488;0.152;2023-09-30T03:46:17;14.40;99.90
29731;DHT22;16639;51.488;0.152;2023-09-30T03:48:44;14.30;99.90
29731;DHT22;16639;51.488;0.152;2023-09-30T03:51:12;14.30;99.90
29731;DHT22;16639;51.488;0.152;2023-09-30T03:53:44;14.30;99.90
29731;DHT22;16639;51.488;0.152;2023-09-30T03:56:12;14.30;99.90
29731;DHT22;16639;51.488;0.152;2023-09-30T03:58:43;14.30;99.90
29731;DHT22;16639;51.488;0.152;2023-09-30T04:01:12;14.30;99.90
29731;DHT22;16639;51.488;0.152;2023-09-30T04:03:44;14.30;99.90
29731;DHT22;16639;51.488;0.152;2023-09-30T04:06:11;14.20;99.90
29731;DHT22;16639;51.488;0.152;2023-09-30T04:08:39;15.30;99.90
29731;DHT22;16639;51.488;0.152;2023-09-30T04:11:06;14.20;99.90
29731;DHT22;16639;51.488;0.152;2023-09-30T04:13:34;14.20;99.90
29731;DHT22;16639;51.488;0.152;2023-09-30T04:16:02;14.20;99.90
29731;DHT22;16639;51.488;0.152;2023-09-30T04:18:30;14.20;99.90
29731;DHT22;16639;51.488;0.152;2023-09-30T04:20:57;14.10;99.90
29731;DHT22;16639;51.488;0.152;2023-09-30T04:23:25;14.10;99.90
29731;DHT22;16639;51.488;0.152;2023-09-30T04:25:53;14.10;99.90
29731;DHT22;16639;51.488;0.152;2023-09-30T04:28:20;14.10;99.90
29731;DHT22;16639;51.488;0.152;2023-09-30T04:30:48;14.00;99.90
29731;DHT22;16639;51.488;0.152;2023-09-30T04:33:18;14.10;99.90
29731;DHT22;16639;51.488;0.152;2023-09-30T04:35:49;14.10;99.90
29731;DHT22;16639;51.488;0.152;2023-09-30T04:38:16;14.10;99.90
29731;DHT22;16639;51.488;0.152;2023-09-30T04:40:44;14.10;99.90
29731;DHT22;16639;51.488;0.152;2023-09-30T04:43:15;14.10;99.90
29731;DHT22;16639;51.488;0.152;2023-09-30T04:45:44;14.10;99.90
29731;DHT22;16639;51.488;0.152;2023-09-30T04:48:12;14.10;99.90
29731;DHT22;16639;51.488;0.152;2023-09-30T04:50:40;14.10;99.90
29731;DHT22;16639;51.488;0.152;2023-09-30T04:53:07;14.10;99.90
29731;DHT22;16639;51.488;0.152;2023-09-30T04:55:36;14.10;99.90
29731;DHT22;16639;51.488;0.152;2023-09-30T04:58:05;14.10;99.90
29731;DHT22;16639;51.488;0.152;2023-09-30T05:00:32;14.10;99.90
29731;DHT22;16639;51.488;0.152;2023-09-30T05:03:02;14.10;99.90
29731;DHT22;16639;51.488;0.152;2023-09-30T05:05:29;14.20;99.90
29731;DHT22;16639;51.488;0.152;2023-09-30T05:07:57;14.10;99.90
29731;DHT22;16639;51.488;0.152;2023-09-30T05:10:25;14.10;99.90
29731;DHT22;16639;51.488;0.152;2023-09-30T05:12:53;14.10;99.90
29731;DHT22;16639;51.488;0.152;2023-09-30T05:15:22;14.10;99.90
29731;DHT22;16639;51.488;0.152;2023-09-30T05:17:50;13.80;99.90
29731;DHT22;16639;51.488;0.152;2023-09-30T05:20:17;14.20;99.90
29731;DHT22;16639;51.488;0.152;2023-09-30T05:22:46;14.20;99.90
29731;DHT22;16639;51.488;0.152;2023-09-30T05:25:15;14.10;99.90
29731;DHT22;16639;51.488;0.152;2023-09-30T05:27:46;14.10;99.90
29731;DHT22;16639;51.488;0.152;2023-09-30T05:30:17;14.10;99.90
29731;DHT22;16639;51.488;0.152;2023-09-30T05:32:47;14.10;99.90
29731;DHT22;16639;51.488;0.152;2023-09-30T05:35:14;14.10;99.90
29731;DHT22;16639;51.488;0.152;2023-09-30T05:37:45;14.10;99.90
29731;DHT22;16639;51.488;0.152;2023-09-30T05:40:12;14.00;99.90
29731;DHT22;16639;51.488;0.152;2023-09-30T05:42:54;14.00;99.90
29731;DHT22;16639;51.488;0.152;2023-09-30T05:45:23;13.90;99.90
29731;DHT22;16639;51.488;0.152;2023-09-30T05:47:51;14.00;99.90
29731;DHT22;16639;51.488;0.152;2023-09-30T05:50:23;13.90;99.90
29731;DHT22;16639;51.488;0.152;2023-09-30T05:52:53;13.90;99.90
29731;DHT22;16639;51.488;0.152;2023-09-30T05:55:22;13.90;99.90
29731;DHT22;16639;51.488;0.152;2023-09-30T05:57:54;13.80;99.90
29731;DHT22;16639;51.488;0.152;2023-09-30T06:00:22;13.80;99.90
29731;DHT22;16639;51.488;0.152;2023-09-30T06:02:59;13.70;99.90
29731;DHT22;16639;51.488;0.152;2023-09-30T06:05:28;13.70;99.90
29731;DHT22;16639;51.488;0.152;2023-09-30T06:08:00;13.60;99.90
29731;DHT22;16639;51.488;0.152;2023-09-30T06:10:30;13.80;99.90
29731;DHT22;16639;51.488;0.152;2023-09-30T06:12:58;13.60;99.90
29731;DHT22;16639;51.488;0.152;2023-09-30T06:15:25;13.60;99.90
29731;DHT22;16639;51.488;0.152;2023-09-30T06:17:55;13.60;99.90
29731;DHT22;16639;51.488;0.152;2023-09-30T06:20:23;13.50;99.90
29731;DHT22;16639;51.488;0.152;2023-09-30T06:22:54;13.50;99.90
29731;DHT22;16639;51.488;0.152;2023-09-30T06:25:22;13.50;99.90
29731;DHT22;16639;51.488;0.152;2023-09-30T06:27:54;13.50;99.90
29731;DHT22;16639;51.488;0.152;2023-09-30T06:30:23;13.90;99.90
29731;DHT22;16639;51.488;0.152;2023-09-30T06:32:58;13.60;99.90
29731;DHT22;16639;51.488;0.152;2023-09-30T06:35:32;13.50;99.90
29731;DHT22;16639;51.488;0.152;2023-09-30T06:38:06;13.60;99.90
29731;DHT22;16639;51.488;0.152;2023-09-30T06:40:34;13.60;99.90
29731;DHT22;16639;51.488;0.152;2023-09-30T06:43:06;13.60;99.90
29731;DHT22;16639;51.488;0.152;2023-09-30T06:45:36;13.70;99.90
29731;DHT22;16639;51.488;0.152;2023-09-30T06:48:10;13.70;99.90
29731;DHT22;16639;51.488;0.152;2023-09-30T06:50:48;13.80;99.90
29731;DHT22;16639;51.488;0.152;2023-09-30T06:53:19;13.80;99.90
29731;DHT22;16639;51.488;0.152;2023-09-30T06:55:46;13.80;99.90
29731;DHT22;16639;51.488;0.152;2023-09-30T06:58:13;13.90;99.90
29731;DHT22;16639;51.488;0.152;2023-09-30T07:00:42;13.90;99.90
29731;DHT22;16639;51.488;0.152;2023-09-30T07:03:09;13.90;99.90
29731;DHT22;16639;51.488;0.152;2023-09-30T07:05:37;13.90;99.90
29731;DHT22;16639;51.488;0.152;2023-09-30T07:08:04;13.90;99.90
29731;DHT22;16639;51.488;0.152;2023-09-30T07:10:32;13.90;99.90
29731;DHT22;16639;51.488;0.152;2023-09-30T07:13:02;13.90;99.90
29731;DHT22;16639;51.488;0.152;2023-09-30T07:15:30;13.90;99.90
29731;DHT22;16639;51.488;0.152;2023-09-30T07:17:58;13.90;99.90
29731;DHT22;16639;51.488;0.152;2023-09-30T07:20:25;13.90;99.90
29731;DHT22;16639;51.488;0.152;2023-09-30T07:22:53;13.90;99.90
29731;DHT22;16639;51.488;0.152;2023-09-30T07:25:40;13.90;99.90
29731;DHT22;16639;51.488;0.152;2023-09-30T07:28:08;13.90;99.90
29731;DHT22;16639;51.488;0.152;2023-09-30T07:30:39;14.00;99.90
29731;DHT22;16639;51.488;0.152;2023-09-30T07:33:07;14.00;99.90
29731;DHT22;16639;51.488;0.152;2023-09-30T07:35:35;14.10;99.90
29731;DHT22;16639;51.488;0.152;2023-09-30T07:38:03;14.10;99.90
29731;DHT22;16639;51.488;0.152;2023-09-30T07:40:31;14.10;99.90
29731;DHT22;16639;51.488;0.152;2023-09-30T07:43:01;14.20;99.90
29731;DHT22;16639;51.488;0.152;2023-09-30T07:45:29;14.20;99.90
29731;DHT22;16639;51.488;0.152;2023-09-30T07:47:56;14.20;99.90
29731;DHT22;16639;51.488;0.152;2023-09-30T07:50:26;14.30;99.90
29731;DHT22;16639;51.488;0.152;2023-09-30T07:52:54;14.30;99.90
29731;DHT22;16639;51.488;0.152;2023-09-30T07:55:21;14.40;99.90
29731;DHT22;16639;51.488;0.152;2023-09-30T07:57:49;14.40;99.90
29731;DHT22;16639;51.488;0.152;2023-09-30T08:00:16;14.40;99.90
29731;DHT22;16639;51.488;0.152;2023-09-30T08:02:44;14.50;99.90
29731;DHT22;16639;51.488;0.152;2023-09-30T08:05:13;14.50;99.90
29731;DHT22;16639;51.488;0.152;2023-09-30T08:07:40;14.50;99.90
29731;DHT22;16639;51.488;0.152;2023-09-30T08:10:09;14.60;99.90
29731;DHT22;16639;51.488;0.152;2023-09-30T08:12:41;14.60;99.90
29731;DHT22;16639;51.488;0.152;2023-09-30T08:15:10;14.70;99.90
29731;DHT22;16639;51.488;0.152;2023-09-30T08:17:41;14.70;99.90
29731;DHT22;16639;51.488;0.152;2023-09-30T08:20:09;14.70;99.90
29731;DHT22;16639;51.488;0.152;2023-09-30T08:22:37;14.70;99.90
29731;DHT22;16639;51.488;0.152;2023-09-30T08:25:05;14.70;99.90
29731;DHT22;16639;51.488;0.152;2023-09-30T08:27:33;15.00;99.90
29731;DHT22;16639;51.488;0.152;2023-09-30T08:30:02;14.80;99.90
29731;DHT22;16639;51.488;0.152;2023-09-30T08:32:34;14.80;99.90
29731;DHT22;16639;51.488;0.152;2023-09-30T08:35:03;14.80;99.90
29731;DHT22;16639;51.488;0.152;2023-09-30T08:37:31;14.80;99.90
29731;DHT22;16639;51.488;0.152;2023-09-30T08:39:59;14.80;99.90
29731;DHT22;16639;51.488;0.152;2023-09-30T08:42:27;14.80;99.90
29731;DHT22;16639;51.488;0.152;2023-09-30T08:45:01;14.90;99.90
29731;DHT22;16639;51.488;0.152;2023-09-30T08:47:29;14.90;99.90
29731;DHT22;16639;51.488;0.152;2023-09-30T08:50:00;15.20;99.90
29731;DHT22;16639;51.488;0.152;2023-09-30T08:52:35;14.90;99.90
29731;DHT22;16639;51.488;0.152;2023-09-30T08:55:08;15.00;99.90
29731;DHT22;16639;51.488;0.152;2023-09-30T08:57:38;15.00;99.90
29731;DHT22;16639;51.488;0.152;2023-09-30T09:00:10;15.00;99.90
29731;DHT22;16639;51.488;0.152;2023-09-30T09:02:42;15.00;99.90
29731;DHT22;16639;51.488;0.152;2023-09-30T09:05:10;15.10;99.90
29731;DHT22;16639;51.488;0.152;2023-09-30T09:07:39;15.10;99.90
29731;DHT22;16639;51.488;0.152;2023-09-30T09:10:11;15.10;99.90
29731;DHT22;16639;51.488;0.152;2023-09-30T09:12:41;15.10;99.90
29731;DHT22;16639;51.488;0.152;2023-09-30T09:15:22;15.10;99.90
29731;DHT22;16639;51.488;0.152;2023-09-30T09:17:50;15.10;99.90
29731;DHT22;16639;51.488;0.152;2023-09-30T09:20:21;15.60;99.90
29731;DHT22;16639;51.488;0.152;2023-09-30T09:22:51;15.20;99.90
29731;DHT22;16639;51.488;0.152;2023-09-30T09:25:22;15.30;99.90
29731;DHT22;16639;51.488;0.152;2023-09-30T09:27:53;15.30;99.90
29731;DHT22;16639;51.488;0.152;2023-09-30T09:30:26;15.40;99.90
29731;DHT22;16639;51.488;0.152;2023-09-30T09:33:04;15.40;99.90
29731;DHT22;16639;51.488;0.152;2023-09-30T09:35:34;15.50;99.90
29731;DHT22;16639;51.488;0.152;2023-09-30T09:38:04;15.60;99.90
29731;DHT22;16639;51.488;0.152;2023-09-30T09:40:36;15.70;99.90
29731;DHT22;16639;51.488;0.152;2023-09-30T09:43:05;15.80;99.90
29731;DHT22;16639;51.488;0.152;2023-09-30T09:45:36;15.80;99.90
29731;DHT22;16639;51.488;0.152;2023-09-30T09:48:05;15.80;99.90
29731;DHT22;16639;51.488;0.152;2023-09-30T09:50:35;15.90;99.90
29731;DHT22;16639;51.488;0.152;2023-09-30T09:53:07;15.90;99.90
29731;DHT22;16639;51.488;0.152;2023-09-30T09:55:36;15.90;99.90
29731;DHT22;16639;51.488;0.152;2023-09-30T09:58:07;16.40;99.90
29731;DHT22;16639;51.488;0.152;2023-09-30T10:00:38;16.00;99.90
29731;DHT22;16639;51.488;0.152;2023-09-30T10:03:06;16.10;99.90
29731;DHT22;16639;51.488;0.152;2023-09-30T10:05:33;16.10;99.90
29731;DHT22;16639;51.488;0.152;2023-09-30T10:08:07;16.20;99.90
29731;DHT22;16639;51.488;0.152;2023-09-30T10:10:36;16.20;99.90
29731;DHT22;16639;51.488;0.152;2023-09-30T10:13:07;16.20;99.90
29731;DHT22;16639;51.488;0.152;2023-09-30T10:15:36;16.30;99.90
29731;DHT22;16639;51.488;0.152;2023-09-30T10:18:10;16.30;99.90
29731;DHT22;16639;51.488;0.152;2023-09-30T10:20:42;16.20;99.90
29731;DHT22;16639;51.488;0.152;2023-09-30T10:26:14;16.20;99.90
29731;DHT22;16639;51.488;0.152;2023-09-30T10:28:46;16.20;99.90
29731;DHT22;16639;51.488;0.152;2023-09-30T10:31:21;16.20;99.90
29731;DHT22;16639;51.488;0.152;2023-09-30T10:36:33;16.30;99.90
29731;DHT22;16639;51.488;0.152;2023-09-30T10:39:02;16.30;99.90
29731;DHT22;16639;51.488;0.152;2023-09-30T10:42:02;16.40;99.90
29731;DHT22;16639;51.488;0.152;2023-09-30T10:44:38;16.40;99.90
29731;DHT22;16639;51.488;0.152;2023-09-30T10:49:49;16.50;99.90
29731;DHT22;16639;51.488;0.152;2023-09-30T10:52:22;16.60;99.90
29731;DHT22;16639;51.488;0.152;2023-09-30T10:54:50;16.70;99.90
29731;DHT22;16639;51.488;0.152;2023-09-30T10:57:27;16.70;99.90
29731;DHT22;16639;51.488;0.152;2023-09-30T11:00:11;16.80;99.90
29731;DHT22;16639;51.488;0.152;2023-09-30T11:02:49;16.70;99.90
29731;DHT22;16639;51.488;0.152;2023-09-30T11:05:18;17.00;99.90
29731;DHT22;16639;51.488;0.152;2023-09-30T11:08:02;17.10;99.90
29731;DHT22;16639;51.488;0.152;2023-09-30T11:10:31;17.20;99.90
29731;DHT22;16639;51.488;0.152;2023-09-30T11:12:59;17.30;99.90
29731;DHT22;16639;51.488;0.152;2023-09-30T11:15:27;17.30;99.90
29731;DHT22;16639;51.488;0.152;2023-09-30T11:18:15;17.40;99.90
29731;DHT22;16639;51.488;0.152;2023-09-30T11:20:44;17.40;99.90
29731;DHT22;16639;51.488;0.152;2023-09-30T11:23:12;17.50;99.90
29731;DHT22;16639;51.488;0.152;2023-09-30T11:25:40;17.50;99.90
29731;DHT22;16639;51.488;0.152;2023-09-30T11:28:15;17.60;99.90
29731;DHT22;16639;51.488;0.152;2023-09-30T11:30:56;17.60;99.90
29731;DHT22;16639;51.488;0.152;2023-09-30T11:33:25;17.70;99.90
29731;DHT22;16639;51.488;0.152;2023-09-30T11:35:59;17.70;99.90
29731;DHT22;16639;51.488;0.152;2023-09-30T11:38:28;17.80;99.90
29731;DHT22;16639;51.488;0.152;2023-09-30T11:41:03;17.80;99.90
29731;DHT22;16639;51.488;0.152;2023-09-30T11:43:35;17.80;99.90
29731;DHT22;16639;51.488;0.152;2023-09-30T11:46:06;17.90;99.90
29731;DHT22;16639;51.488;0.152;2023-09-30T11:48:36;17.80;99.90
29731;DHT22;16639;51.488;0.152;2023-09-30T11:51:04;17.90;99.90
29731;DHT22;16639;51.488;0.152;2023-09-30T11:53:35;17.90;99.90
29731;DHT22;16639;51.488;0.152;2023-09-30T11:56:06;17.80;99.90
29731;DHT22;16639;51.488;0.152;2023-09-30T11:58:37;17.80;99.90
29731;DHT22;16639;51.488;0.152;2023-09-30T12:01:06;17.70;99.90
29731;DHT22;16639;51.488;0.152;2023-09-30T12:03:34;17.70;99.90
29731;DHT22;16639;51.488;0.152;2023-09-30T12:06:07;17.70;99.90
29731;DHT22;16639;51.488;0.152;2023-09-30T12:08:35;17.60;99.90
29731;DHT22;16639;51.488;0.152;2023-09-30T12:11:05;17.60;99.90
29731;DHT22;16639;51.488;0.152;2023-09-30T12:13:33;17.60;99.90
29731;DHT22;16639;51.488;0.152;2023-09-30T12:16:00;17.50;99.90
29731;DHT22;16639;51.488;0.152;2023-09-30T12:18:28;17.90;99.90
29731;DHT22;16639;51.488;0.152;2023-09-30T12:20:55;17.80;99.90
29731;DHT22;16639;51.488;0.152;2023-09-30T12:23:23;17.90;99.90
29731;DHT22;16639;51.488;0.152;2023-09-30T12:25:52;18.00;99.90
29731;DHT22;16639;51.488;0.152;2023-09-30T12:28:39;18.00;99.90
29731;DHT22;16639;51.488;0.152;2023-09-30T12:31:08;18.10;99.90
29731;DHT22;16639;51.488;0.152;2023-09-30T12:33:36;18.10;99.90
29731;DHT22;16639;51.488;0.152;2023-09-30T12:36:04;18.10;99.90
29731;DHT22;16639;51.488;0.152;2023-09-30T12:38:31;18.50;99.90
29731;DHT22;16639;51.488;0.152;2023-09-30T12:40:59;18.10;99.90
29731;DHT22;16639;51.488;0.152;2023-09-30T12:43:27;18.20;99.90
29731;DHT22;16639;51.488;0.152;2023-09-30T12:45:55;18.20;99.90
29731;DHT22;16639;51.488;0.152;2023-09-30T12:48:22;18.20;99.90
29731;DHT22;16639;51.488;0.152;2023-09-30T12:50:50;18.30;99.90
29731;DHT22;16639;51.488;0.152;2023-09-30T12:53:17;18.30;99.90
29731;DHT22;16639;51.488;0.152;2023-09-30T12:55:45;18.30;99.90
29731;DHT22;16639;51.488;0.152;2023-09-30T12:58:13;18.30;99.90
29731;DHT22;16639;51.488;0.152;2023-09-30T13:00:40;18.30;99.90
29731;DHT22;16639;51.488;0.152;2023-09-30T13:03:08;18.30;99.90
29731;DHT22;16639;51.488;0.152;2023-09-30T13:05:35;18.40;99.90
29731;DHT22;16639;51.488;0.152;2023-09-30T13:08:03;18.40;99.90
29731;DHT22;16639;51.488;0.152;2023-09-30T13:10:30;18.40;99.90
29731;DHT22;16639;51.488;0.152;2023-09-30T13:12:58;18.40;99.90
29731;DHT22;16639;51.488;0.152;2023-09-30T13:15:25;18.40;99.90
29731;DHT22;16639;51.488;0.152;2023-09-30T13:17:53;18.40;99.90
29731;DHT22;16639;51.488;0.152;2023-09-30T13:20:21;18.40;99.90
29731;DHT22;16639;51.488;0.152;2023-09-30T13:22:48;18.40;99.90
29731;DHT22;16639;51.488;0.152;2023-09-30T13:25:27;18.40;99.90
29731;DHT22;16639;51.488;0.152;2023-09-30T13:28:27;18.40;99.90
29731;DHT22;16639;51.488;0.152;2023-09-30T13:30:56;18.50;99.90
29731;DHT22;16639;51.488;0.152;2023-09-30T13:33:24;18.60;99.90
29731;DHT22;16639;51.488;0.152;2023-09-30T13:35:51;18.60;99.90
29731;DHT22;16639;51.488;0.152;2023-09-30T13:38:19;18.50;99.90
29731;DHT22;16639;51.488;0.152;2023-09-30T13:40:46;18.50;99.90
29731;DHT22;16639;51.488;0.152;2023-09-30T13:43:14;18.50;99.90
29731;DHT22;16639;51.488;0.152;2023-09-30T13:45:41;18.40;99.90
29731;DHT22;16639;51.488;0.152;2023-09-30T13:48:09;18.30;99.90
29731;DHT22;16639;51.488;0.152;2023-09-30T13:50:36;18.30;99.90
29731;DHT22;16639;51.488;0.152;2023-09-30T13:53:04;18.30;99.90
29731;DHT22;16639;51.488;0.152;2023-09-30T13:55:32;18.30;99.90
29731;DHT22;16639;51.488;0.152;2023-09-30T13:57:59;18.40;99.90
29731;DHT22;16639;51.488;0.152;2023-09-30T14:00:27;18.40;99.90
29731;DHT22;16639;51.488;0.152;2023-09-30T14:02:54;18.40;99.90
29731;DHT22;16639;51.488;0.152;2023-09-30T14:05:22;18.40;99.90
29731;DHT22;16639;51.488;0.152;2023-09-30T14:07:50;18.40;99.90
29731;DHT22;16639;51.488;0.152;2023-09-30T14:10:18;18.40;99.90
29731;DHT22;16639;51.488;0.152;2023-09-30T14:12:46;18.40;99.90
29731;DHT22;16639;51.488;0.152;2023-09-30T14:15:13;18.40;99.90
29731;DHT22;16639;51.488;0.152;2023-09-30T14:17:42;18.50;99.90
29731;DHT22;16639;51.488;0.152;2023-09-30T14:20:12;18.60;99.90
29731;DHT22;16639;51.488;0.152;2023-09-30T14:22:40;18.50;99.90
29731;DHT22;16639;51.488;0.152;2023-09-30T14:25:09;18.50;99.90
29731;DHT22;16639;51.488;0.152;2023-09-30T14:27:41;18.60;99.90
29731;DHT22;16639;51.488;0.152;2023-09-30T14:30:11;18.70;99.90
29731;DHT22;16639;51.488;0.152;2023-09-30T14:32:39;18.90;99.90
29731;DHT22;16639;51.488;0.152;2023-09-30T14:35:08;18.70;99.90
29731;DHT22;16639;51.488;0.152;2023-09-30T14:37:36;18.80;99.90
29731;DHT22;16639;51.488;0.152;2023-09-30T14:40:04;18.80;99.90
29731;DHT22;16639;51.488;0.152;2023-09-30T14:42:33;18.80;99.90
29731;DHT22;16639;51.488;0.152;2023-09-30T14:45:00;18.80;99.90
29731;DHT22;16639;51.488;0.152;2023-09-30T14:47:27;18.80;99.90
29731;DHT22;16639;51.488;0.152;2023-09-30T14:49:56;18.80;99.90
29731;DHT22;16639;51.488;0.152;2023-09-30T14:52:23;18.90;99.90
29731;DHT22;16639;51.488;0.152;2023-09-30T14:54:50;18.80;99.90
29731;DHT22;16639;51.488;0.152;2023-09-30T14:57:36;18.90;99.90
29731;DHT22;16639;51.488;0.152;2023-09-30T15:00:20;18.90;99.90
29731;DHT22;16639;51.488;0.152;2023-09-30T15:02:50;18.90;99.90
29731;DHT22;16639;51.488;0.152;2023-09-30T15:05:18;18.90;99.90
29731;DHT22;16639;51.488;0.152;2023-09-30T15:07:46;18.90;99.90
29731;DHT22;16639;51.488;0.152;2023-09-30T15:10:26;19.20;99.90
29731;DHT22;16639;51.488;0.152;2023-09-30T15:12:57;19.00;99.90
29731;DHT22;16639;51.488;0.152;2023-09-30T15:15:24;18.70;99.90
29731;DHT22;16639;51.488;0.152;2023-09-30T15:17:52;18.90;99.90
29731;DHT22;16639;51.488;0.152;2023-09-30T15:20:22;18.90;99.90
29731;DHT22;16639;51.488;0.152;2023-09-30T15:23:03;18.90;99.90
29731;DHT22;16639;51.488;0.152;2023-09-30T15:25:59;18.90;99.90
29731;DHT22;16639;51.488;0.152;2023-09-30T15:28:36;18.90;99.90
29731;DHT22;16639;51.488;0.152;2023-09-30T15:31:32;18.90;99.90
29731;DHT22;16639;51.488;0.152;2023-09-30T15:34:01;18.90;99.90
29731;DHT22;16639;51.488;0.152;2023-09-30T15:36:48;18.80;99.90
29731;DHT22;16639;51.488;0.152;2023-09-30T15:39:29;18.80;99.90
29731;DHT22;16639;51.488;0.152;2023-09-30T15:42:46;18.80;99.90
29731;DHT22;16639;51.488;0.152;2023-09-30T15:45:13;18.80;99.90
29731;DHT22;16639;51.488;0.152;2023-09-30T15:47:41;18.80;99.90
29731;DHT22;16639;51.488;0.152;2023-09-30T15:50:17;18.80;99.90
29731;DHT22;16639;51.488;0.152;2023-09-30T15:52:45;18.80;99.90
29731;DHT22;16639;51.488;0.152;2023-09-30T15:55:33;18.80;99.90
29731;DHT22;16639;51.488;0.152;2023-09-30T15:58:19;19.80;99.90
29731;DHT22;16639;51.488;0.152;2023-09-30T16:01:01;18.80;99.90